createdAt,value
2019-03-04T00:01:06.586Z,6.03
2019-03-04T00:03:35.577Z,5.07
2019-03-04T00:06:04.467Z,5.30
2019-03-04T00:08:33.358Z,4.40
2019-03-04T00:11:02.352Z,6.60
2019-03-04T00:13:31.344Z,6.20
2019-03-04T00:16:00.235Z,5.03
2019-03-04T00:18:29.238Z,5.57
2019-03-04T00:20:58.120Z,5.20
2019-03-04T00:23:27.011Z,4.77
2019-03-04T00:25:56.007Z,5.00
2019-03-04T00:28:24.896Z,5.80
2019-03-04T00:30:53.787Z,4.60
2019-03-04T00:33:22.780Z,5.90
2019-03-04T00:35:51.678Z,4.80
2019-03-04T00:38:20.559Z,4.40
2019-03-04T00:40:49.450Z,6.90
2019-03-04T00:43:18.343Z,4.97
2019-03-04T00:45:47.232Z,4.50
2019-03-04T00:48:16.130Z,8.97
2019-03-04T00:50:45.730Z,5.90
2019-03-04T00:53:14.620Z,4.63
2019-03-04T00:55:43.511Z,5.40
2019-03-04T00:58:12.402Z,5.03
2019-03-04T01:00:41.293Z,4.17
2019-03-04T01:03:10.286Z,3.83
2019-03-04T01:05:39.177Z,5.10
2019-03-04T01:08:08.068Z,6.40
2019-03-04T01:10:37.062Z,7.40
2019-03-04T01:13:05.952Z,6.40
2019-03-04T01:15:35.862Z,8.67
2019-03-04T01:18:04.760Z,8.87
2019-03-04T01:20:33.648Z,6.40
2019-03-04T01:23:02.539Z,5.27
2019-03-04T01:25:31.429Z,5.80
2019-03-04T01:28:00.320Z,5.83
2019-03-04T01:30:29.211Z,5.07
2019-03-04T01:32:58.103Z,5.07
2019-03-04T01:35:26.993Z,4.10
2019-03-04T01:37:55.884Z,4.80
2019-03-04T01:40:25.493Z,4.90
2019-03-04T01:42:54.381Z,7.50
2019-03-04T01:45:23.275Z,4.93
2019-03-04T01:47:52.265Z,4.17
2019-03-04T01:50:21.158Z,3.73
2019-03-04T01:52:50.095Z,3.90
2019-03-04T01:55:20.166Z,4.33
2019-03-04T01:57:49.057Z,3.93
2019-03-04T02:00:20.777Z,3.83
2019-03-04T02:02:49.707Z,6.00
2019-03-04T02:05:20.135Z,3.90
2019-03-04T02:07:49.053Z,3.77
2019-03-04T02:10:20.681Z,3.90
2019-03-04T02:12:50.476Z,3.93
2019-03-04T02:15:22.455Z,4.33
2019-03-04T02:17:51.345Z,3.47
2019-03-04T02:20:20.133Z,3.70
2019-03-04T02:22:49.127Z,3.90
2019-03-04T02:25:23.650Z,4.00
2019-03-04T02:27:55.715Z,5.10
2019-03-04T02:30:27.590Z,4.00
2019-03-04T02:32:56.462Z,3.77
2019-03-04T02:35:25.367Z,3.50
2019-03-04T02:37:54.248Z,3.93
2019-03-04T02:40:23.138Z,3.83
2019-03-04T02:42:52.022Z,3.50
2019-03-04T02:45:20.921Z,4.93
2019-03-04T02:47:49.913Z,2.77
2019-03-04T02:50:18.804Z,3.37
2019-03-04T02:52:47.697Z,3.73
2019-03-04T02:55:17.996Z,3.10
2019-03-04T02:57:46.910Z,4.83
2019-03-04T03:00:18.565Z,3.40
2019-03-04T03:02:47.464Z,3.00
2019-03-04T03:05:17.148Z,3.80
2019-03-04T03:07:46.061Z,3.67
2019-03-04T03:10:16.659Z,2.83
2019-03-04T03:12:45.597Z,2.63
2019-03-04T03:15:18.239Z,3.70
2019-03-04T03:17:47.152Z,3.83
2019-03-04T03:20:17.474Z,3.83
2019-03-04T03:22:46.366Z,2.90
2019-03-04T03:25:17.085Z,3.70
2019-03-04T03:27:45.995Z,2.97
2019-03-04T03:30:21.060Z,2.63
2019-03-04T03:32:50.678Z,4.87
2019-03-04T03:35:19.593Z,3.17
2019-03-04T03:37:48.517Z,3.20
2019-03-04T03:40:20.273Z,2.53
2019-03-04T03:42:49.881Z,2.50
2019-03-04T03:45:19.492Z,2.77
2019-03-04T03:47:48.381Z,2.77
2019-03-04T03:50:18.778Z,2.80
2019-03-04T03:52:47.704Z,3.43
2019-03-04T03:55:17.900Z,3.30
2019-03-04T03:57:46.811Z,2.43
2019-03-04T04:00:21.256Z,4.10
2019-03-04T04:02:50.229Z,3.17
2019-03-04T04:05:19.116Z,3.27
2019-03-04T04:07:48.724Z,4.13
2019-03-04T04:10:22.539Z,2.30
2019-03-04T04:12:51.422Z,3.03
2019-03-04T04:15:22.147Z,3.50
2019-03-04T04:17:51.048Z,3.57
2019-03-04T04:20:19.931Z,2.90
2019-03-04T04:22:48.826Z,2.87
2019-03-04T04:25:17.718Z,3.37
2019-03-04T04:27:46.607Z,5.00
2019-03-04T04:30:22.768Z,3.73
2019-03-04T04:32:51.660Z,3.50
2019-03-04T04:35:20.550Z,2.40
2019-03-04T04:37:49.441Z,2.10
2019-03-04T04:40:18.331Z,3.20
2019-03-04T04:42:47.222Z,3.03
2019-03-04T04:45:16.114Z,2.33
2019-03-04T04:47:45.716Z,2.97
2019-03-04T04:50:17.581Z,3.17
2019-03-04T04:52:46.472Z,3.83
2019-03-04T04:55:15.468Z,2.50
2019-03-04T04:57:44.460Z,5.43
2019-03-04T05:00:16.626Z,3.00
2019-03-04T05:02:45.516Z,4.03
2019-03-04T05:05:15.234Z,2.23
2019-03-04T05:07:45.039Z,2.00
2019-03-04T05:10:22.730Z,3.73
2019-03-04T05:12:51.626Z,5.00
2019-03-04T05:15:20.622Z,5.60
2019-03-04T05:17:49.511Z,5.40
2019-03-04T05:20:23.112Z,3.33
2019-03-04T05:22:52.004Z,4.23
2019-03-04T05:25:20.884Z,2.20
2019-03-04T05:27:49.785Z,2.60
2019-03-04T05:30:20.501Z,3.03
2019-03-04T05:32:49.409Z,3.23
2019-03-04T05:35:18.403Z,4.70
2019-03-04T05:37:47.293Z,3.67
2019-03-04T05:40:21.660Z,2.87
2019-03-04T05:42:50.604Z,2.30
2019-03-04T05:45:20.297Z,2.90
2019-03-04T05:47:49.210Z,2.87
2019-03-04T05:50:24.240Z,3.23
2019-03-04T05:52:53.130Z,2.50
2019-03-04T05:55:22.021Z,2.70
2019-03-04T05:57:50.913Z,2.53
2019-03-04T06:00:25.333Z,5.00
2019-03-04T06:03:03.197Z,3.80
2019-03-04T06:05:32.125Z,4.47
2019-03-04T06:08:05.113Z,3.73
2019-03-04T06:10:34.047Z,4.00
2019-03-04T06:13:02.995Z,3.60
2019-03-04T06:15:31.887Z,3.90
2019-03-04T06:18:00.882Z,3.60
2019-03-04T06:20:29.876Z,2.83
2019-03-04T06:22:58.765Z,2.93
2019-03-04T06:25:29.882Z,2.80
2019-03-04T06:27:58.798Z,4.10
2019-03-04T06:30:32.377Z,3.17
2019-03-04T06:33:01.291Z,3.27
2019-03-04T06:35:30.283Z,4.43
2019-03-04T06:37:59.277Z,2.80
2019-03-04T06:40:28.170Z,3.70
2019-03-04T06:42:57.062Z,3.53
2019-03-04T06:45:27.484Z,2.80
2019-03-04T06:47:56.297Z,3.23
2019-03-04T06:50:47.905Z,3.23
2019-03-04T06:53:31.943Z,3.17
2019-03-04T06:56:32.581Z,5.53
2019-03-04T06:59:07.715Z,3.87
2019-03-04T07:01:39.557Z,3.50
2019-03-04T07:04:11.436Z,5.50
2019-03-04T07:06:40.326Z,5.73
2019-03-04T07:09:10.039Z,4.47
2019-03-04T07:11:39.029Z,3.90
2019-03-04T07:14:08.535Z,6.40
2019-03-04T07:16:37.426Z,6.20
2019-03-04T07:19:07.028Z,3.80
2019-03-04T07:21:35.924Z,5.90
2019-03-04T07:24:05.019Z,3.47
2019-03-04T07:26:34.013Z,2.77
2019-03-04T07:29:02.903Z,4.57
2019-03-04T07:31:31.796Z,7.50
2019-03-04T07:34:00.787Z,4.63
2019-03-04T07:36:29.678Z,5.00
2019-03-04T07:38:59.283Z,4.67
2019-03-04T07:41:29.039Z,5.80
2019-03-04T07:43:57.989Z,4.27
2019-03-04T07:46:26.982Z,3.10
2019-03-04T07:48:55.875Z,5.77
2019-03-04T07:51:25.378Z,4.37
2019-03-04T07:53:54.268Z,2.60
2019-03-04T07:56:23.160Z,2.80
2019-03-04T07:58:52.050Z,3.47
2019-03-04T08:01:20.937Z,4.43
2019-03-04T08:03:49.833Z,4.57
2019-03-04T08:06:18.723Z,3.23
2019-03-04T08:09:07.479Z,2.93
2019-03-04T08:11:45.381Z,1.37
2019-03-04T08:14:14.786Z,1.50
2019-03-04T08:16:43.675Z,3.20
2019-03-04T08:19:12.567Z,1.10
2019-03-04T08:21:41.457Z,2.50
2019-03-04T08:24:10.363Z,1.30
2019-03-04T08:26:39.300Z,1.30
2019-03-04T08:29:09.013Z,3.60
2019-03-04T08:31:37.941Z,3.63
2019-03-04T08:34:09.205Z,1.20
2019-03-04T08:36:37.464Z,1.17
2019-03-04T08:39:09.321Z,1.10
2019-03-04T08:41:38.217Z,1.13
2019-03-04T08:44:07.106Z,1.13
2019-03-04T08:46:36.099Z,1.23
2019-03-04T08:49:05.681Z,1.30
2019-03-04T08:51:34.597Z,1.80
2019-03-04T08:54:03.590Z,1.70
2019-03-04T08:56:32.481Z,1.90
2019-03-04T08:59:01.377Z,1.40
2019-03-04T09:01:31.313Z,1.70
2019-03-04T09:04:00.996Z,1.50
2019-03-04T09:06:29.874Z,1.60
2019-03-04T09:08:59.599Z,1.60
2019-03-04T09:11:28.490Z,1.20
2019-03-04T09:13:57.379Z,3.53
2019-03-04T09:16:26.272Z,2.63
2019-03-04T09:18:55.162Z,1.77
2019-03-04T09:21:24.052Z,1.83
2019-03-04T09:23:52.942Z,1.30
2019-03-04T09:26:21.834Z,4.43
2019-03-04T09:28:50.723Z,5.23
2019-03-04T09:31:21.764Z,2.70
2019-03-04T09:33:50.655Z,2.40
2019-03-04T09:36:19.547Z,1.87
2019-03-04T09:38:48.399Z,2.37
2019-03-04T09:41:17.226Z,2.00
2019-03-04T09:43:46.116Z,1.60
2019-03-04T09:46:15.007Z,2.97
2019-03-04T09:48:43.889Z,2.23
2019-03-04T09:51:12.781Z,4.00
2019-03-04T09:53:43.138Z,2.20
2019-03-04T09:56:12.102Z,2.07
2019-03-04T09:58:41.100Z,2.83
2019-03-04T10:01:15.637Z,2.30
2019-03-04T10:04:04.072Z,2.87
2019-03-04T10:07:07.262Z,2.70
2019-03-04T10:09:50.412Z,2.20
2019-03-04T10:12:38.738Z,2.93
2019-03-04T10:15:25.651Z,2.40
2019-03-04T10:18:23.318Z,2.50
2019-03-04T10:21:10.129Z,6.43
2019-03-04T10:23:56.940Z,2.33
2019-03-04T10:26:40.576Z,3.50
2019-03-04T10:29:18.681Z,4.67
2019-03-04T10:31:53.410Z,13.17
2019-03-04T10:34:46.466Z,9.03
2019-03-04T10:37:36.759Z,5.20
2019-03-04T10:40:25.211Z,9.80
2019-03-04T10:43:20.063Z,6.80
2019-03-04T10:46:19.516Z,7.80
2019-03-04T10:48:48.509Z,9.93
2019-03-04T10:51:18.731Z,10.60
2019-03-04T10:53:47.931Z,8.10
2019-03-04T10:56:16.820Z,10.30
2019-03-04T10:58:45.713Z,8.20
2019-03-04T11:01:14.601Z,8.90
2019-03-04T11:03:43.492Z,7.60
2019-03-04T11:06:12.383Z,7.37
2019-03-04T11:08:41.275Z,7.03
2019-03-04T11:11:10.164Z,9.37
2019-03-04T11:13:39.055Z,7.03
2019-03-04T11:16:08.049Z,7.20
2019-03-04T11:18:36.940Z,7.17
2019-03-04T11:21:06.649Z,9.43
2019-03-04T11:23:35.642Z,5.80
2019-03-04T11:26:05.319Z,10.00
2019-03-04T11:28:34.150Z,6.83
2019-03-04T11:31:03.031Z,6.00
2019-03-04T11:33:31.922Z,7.17
2019-03-04T11:36:00.813Z,8.13
2019-03-04T11:38:41.675Z,7.30
2019-03-04T11:41:13.448Z,5.60
2019-03-04T11:43:42.333Z,5.90
2019-03-04T11:46:11.223Z,6.97
2019-03-04T11:48:40.117Z,5.27
2019-03-04T11:51:09.108Z,6.20
2019-03-04T11:53:37.998Z,13.20
2019-03-04T11:56:06.891Z,6.70
2019-03-04T11:58:35.813Z,7.87
2019-03-04T12:01:10.406Z,4.33
2019-03-04T12:03:39.400Z,4.63
2019-03-04T12:06:09.006Z,5.03
2019-03-04T12:08:37.899Z,4.97
2019-03-04T12:11:07.711Z,5.03
2019-03-04T12:13:36.599Z,4.67
2019-03-04T12:16:05.491Z,5.00
2019-03-04T12:18:34.372Z,6.77
2019-03-04T12:21:03.273Z,6.93
2019-03-04T12:23:33.597Z,7.20
2019-03-04T12:26:02.492Z,7.10
2019-03-04T12:28:31.379Z,6.10
2019-03-04T12:31:00.372Z,5.10
2019-03-04T12:33:29.262Z,4.97
2019-03-04T12:35:58.154Z,8.87
2019-03-04T12:38:27.043Z,5.13
2019-03-04T12:40:55.934Z,4.77
2019-03-04T12:43:24.825Z,4.87
2019-03-04T12:45:53.715Z,6.30
2019-03-04T12:48:22.607Z,4.77
2019-03-04T12:50:51.498Z,5.30
2019-03-04T12:53:20.360Z,5.77
2019-03-04T12:55:49.279Z,5.07
2019-03-04T12:58:18.171Z,5.27
2019-03-04T13:00:47.061Z,7.53
2019-03-04T13:03:23.222Z,6.30
2019-03-04T13:05:52.114Z,6.43
2019-03-04T13:08:21.003Z,7.00
2019-03-04T13:10:49.875Z,5.90
2019-03-04T13:13:18.785Z,5.57
2019-03-04T13:15:48.085Z,6.00
2019-03-04T13:18:16.977Z,6.27
2019-03-04T13:20:45.867Z,5.60
2019-03-04T13:23:14.758Z,5.50
2019-03-04T13:25:43.640Z,3.40
2019-03-04T13:28:12.641Z,5.60
2019-03-04T13:30:42.762Z,5.00
2019-03-04T13:33:12.369Z,4.40
2019-03-04T13:35:45.335Z,4.63
2019-03-04T13:38:14.350Z,5.53
2019-03-04T13:40:43.235Z,4.90
2019-03-04T13:43:12.135Z,5.40
2019-03-04T13:45:41.024Z,6.20
2019-03-04T13:48:09.912Z,8.60
2019-03-04T13:50:39.622Z,12.00
2019-03-04T13:53:09.767Z,7.80
2019-03-04T13:55:38.735Z,8.60
2019-03-04T13:58:07.627Z,7.70
2019-03-04T14:00:42.443Z,8.67
2019-03-04T14:03:13.988Z,8.80
2019-03-04T14:05:42.905Z,10.87
2019-03-04T14:08:11.790Z,9.50
2019-03-04T14:10:46.108Z,9.33
2019-03-04T14:13:15.006Z,9.00
2019-03-04T14:15:46.861Z,9.17
2019-03-04T14:18:15.751Z,9.13
2019-03-04T14:20:44.641Z,12.07
2019-03-04T14:23:13.531Z,9.27
2019-03-04T14:25:43.709Z,8.27
2019-03-04T14:28:12.645Z,8.43
2019-03-04T14:30:41.612Z,8.47
2019-03-04T14:33:11.143Z,8.80
2019-03-04T14:35:40.034Z,10.80
2019-03-04T14:38:08.925Z,11.80
2019-03-04T14:40:37.817Z,13.23
2019-03-04T14:43:07.733Z,17.33
2019-03-04T14:45:36.624Z,10.70
2019-03-04T14:48:05.513Z,11.20
2019-03-04T14:50:34.507Z,9.77
2019-03-04T14:53:03.397Z,14.13
2019-03-04T14:55:35.532Z,12.80
2019-03-04T14:58:05.127Z,9.87
2019-03-04T15:00:46.760Z,8.67
2019-03-04T15:03:23.036Z,11.57
2019-03-04T15:05:47.291Z,10.70
2019-03-04T15:08:16.199Z,6.50
2019-03-04T15:10:45.190Z,6.93
2019-03-04T15:13:14.082Z,6.27
2019-03-04T15:15:42.938Z,5.20
2019-03-04T15:18:11.863Z,6.33
2019-03-04T15:20:41.469Z,3.73
2019-03-04T15:23:10.463Z,3.20
2019-03-04T15:25:42.686Z,3.10
2019-03-04T15:28:20.023Z,3.30
2019-03-04T15:30:55.131Z,2.70
2019-03-04T15:33:24.048Z,2.03
2019-03-04T15:35:52.940Z,2.23
2019-03-04T15:38:21.830Z,21.20
2019-03-04T15:40:51.438Z,4.90
2019-03-04T15:43:20.329Z,2.43
2019-03-04T15:45:50.749Z,2.57
2019-03-04T15:48:22.615Z,3.00
2019-03-04T15:50:51.506Z,4.37
2019-03-04T15:53:21.320Z,4.00
2019-03-04T15:55:51.131Z,4.50
2019-03-04T15:58:20.022Z,3.23
2019-03-04T16:00:49.017Z,7.47
2019-03-04T16:03:17.907Z,3.03
2019-03-04T16:05:46.797Z,2.37
2019-03-04T16:08:15.790Z,2.67
2019-03-04T16:10:44.683Z,6.77
2019-03-04T16:13:13.674Z,7.37
2019-03-04T16:15:47.458Z,2.63
2019-03-04T16:18:16.372Z,4.17
2019-03-04T16:20:45.365Z,3.03
2019-03-04T16:23:14.255Z,3.77
2019-03-04T16:25:43.145Z,4.33
2019-03-04T16:28:24.528Z,1.80
2019-03-04T16:30:53.419Z,5.00
2019-03-04T16:33:23.822Z,3.97
2019-03-04T16:35:52.737Z,1.37
2019-03-04T16:38:22.345Z,3.53
2019-03-04T16:40:51.340Z,2.70
2019-03-04T16:43:20.871Z,1.03
2019-03-04T16:45:49.836Z,0.90
2019-03-04T16:48:18.728Z,1.27
2019-03-04T16:50:48.949Z,2.50
2019-03-04T16:53:23.598Z,1.43
2019-03-04T16:55:52.465Z,1.73
2019-03-04T16:58:21.356Z,2.00
2019-03-04T17:00:50.351Z,1.70
2019-03-04T17:03:19.224Z,0.87
2019-03-04T17:05:48.131Z,0.50
2019-03-04T17:08:16.655Z,2.87
2019-03-04T17:10:45.605Z,6.53
2019-03-04T17:13:14.496Z,1.20
2019-03-04T17:15:43.387Z,0.60
2019-03-04T17:18:12.381Z,0.70
2019-03-04T17:20:40.964Z,24.17
2019-03-04T17:23:09.434Z,1.10
2019-03-04T17:25:37.884Z,1.53
2019-03-04T17:28:06.919Z,1.00
2019-03-04T17:30:36.128Z,2.40
2019-03-04T17:33:04.696Z,0.60
2019-03-04T17:35:33.152Z,0.70
2019-03-04T17:38:01.643Z,0.73
2019-03-04T17:40:30.966Z,3.63
2019-03-04T17:42:59.484Z,1.03
2019-03-04T17:45:30.647Z,0.70
2019-03-04T17:47:59.171Z,1.37
2019-03-04T17:50:32.099Z,1.83
2019-03-04T17:53:01.152Z,1.60
2019-03-04T17:55:29.601Z,2.07
2019-03-04T17:57:58.095Z,0.70
2019-03-04T18:00:26.555Z,1.10
2019-03-04T18:02:54.999Z,3.33
2019-03-04T18:05:23.493Z,1.03
2019-03-04T18:07:52.039Z,2.23
2019-03-04T18:10:20.728Z,1.63
2019-03-04T18:12:49.202Z,1.77
2019-03-04T18:15:19.120Z,1.73
2019-03-04T18:17:47.610Z,1.40
2019-03-04T18:20:16.064Z,1.70
2019-03-04T18:22:45.719Z,1.40
2019-03-04T18:25:21.456Z,2.23
2019-03-04T18:27:51.379Z,4.40
2019-03-04T18:30:52.645Z,2.40
2019-03-04T18:33:22.623Z,4.50
2019-03-04T18:35:58.684Z,1.77
2019-03-04T18:38:37.608Z,4.60
2019-03-04T18:41:19.425Z,2.07
2019-03-04T18:43:55.160Z,1.10
2019-03-04T18:46:37.253Z,3.03
2019-03-04T18:49:05.756Z,1.60
2019-03-04T18:51:35.008Z,1.73
2019-03-04T18:54:04.949Z,4.07
2019-03-04T18:56:33.436Z,3.30
2019-03-04T18:59:02.872Z,3.37
2019-03-04T19:01:31.329Z,1.60
2019-03-04T19:03:59.830Z,1.70
2019-03-04T19:06:28.623Z,2.30
2019-03-04T19:08:57.659Z,2.30
2019-03-04T19:11:26.264Z,4.27
2019-03-04T19:13:54.899Z,3.43
2019-03-04T19:16:27.216Z,3.20
2019-03-04T19:18:56.550Z,2.10
2019-03-04T19:24:15.438Z,1.20
2019-03-04T19:26:44.927Z,2.20
2019-03-04T19:29:15.530Z,5.20
2019-03-04T19:31:46.536Z,1.50
2019-03-04T19:34:17.276Z,4.20
2019-03-04T19:36:45.803Z,2.30
2019-03-04T19:39:14.671Z,1.47
2019-03-04T19:41:44.922Z,2.63
2019-03-04T19:44:13.970Z,2.97
2019-03-04T19:46:43.103Z,1.73
2019-03-04T19:49:15.118Z,1.57
2019-03-04T19:51:45.186Z,2.90
2019-03-04T19:54:14.231Z,1.87
2019-03-04T19:56:43.414Z,2.60
2019-03-04T19:59:15.862Z,0.80
2019-03-04T20:01:44.348Z,5.80
2019-03-04T20:04:13.456Z,1.97
2019-03-04T20:06:42.257Z,2.20
2019-03-04T20:09:14.038Z,1.00
2019-03-04T20:11:44.184Z,1.37
2019-03-04T20:14:13.492Z,1.50
2019-03-04T20:16:42.484Z,1.90
2019-03-04T20:19:11.661Z,3.13
2019-03-04T20:21:40.498Z,1.77
2019-03-04T20:24:09.714Z,2.23
2019-03-04T20:26:38.833Z,2.17
2019-03-04T20:29:07.871Z,1.13
2019-03-04T20:31:36.887Z,5.90
2019-03-04T20:34:06.039Z,1.70
2019-03-04T20:36:35.026Z,2.00
2019-03-04T20:39:04.925Z,4.03
2019-03-04T20:41:33.948Z,1.00
2019-03-04T20:44:02.714Z,5.30
2019-03-04T20:46:31.737Z,2.30
2019-03-04T20:49:03.672Z,2.10
2019-03-04T20:51:32.808Z,1.30
2019-03-04T20:54:01.731Z,3.50
2019-03-04T20:56:30.775Z,1.17
2019-03-04T20:58:59.740Z,0.90
2019-03-04T21:01:29.087Z,1.30
2019-03-04T21:03:58.253Z,3.97
2019-03-04T21:06:27.238Z,1.10
2019-03-04T21:08:56.409Z,0.97
2019-03-04T21:11:25.289Z,2.40
2019-03-04T21:13:54.383Z,1.70
2019-03-04T21:16:26.192Z,3.20
2019-03-04T21:18:54.890Z,2.60
2019-03-04T21:21:26.630Z,4.27
2019-03-04T21:23:55.770Z,1.70
2019-03-04T21:26:24.692Z,1.00
2019-03-04T21:29:07.899Z,1.30
2019-03-04T21:31:43.588Z,1.83
2019-03-04T21:34:19.168Z,1.23
2019-03-04T21:37:04.077Z,1.10
2019-03-04T21:39:38.580Z,1.53
2019-03-04T21:42:11.762Z,1.10
2019-03-04T21:44:43.883Z,1.97
2019-03-04T21:47:32.422Z,1.67
2019-03-04T21:50:03.073Z,1.30
2019-03-04T21:52:38.276Z,1.40
2019-03-04T21:55:10.031Z,1.70
2019-03-04T21:57:43.098Z,0.83
2019-03-04T22:00:13.882Z,1.00
2019-03-04T22:02:44.373Z,1.73
2019-03-04T22:05:14.969Z,2.30
2019-03-04T22:07:44.432Z,1.83
2019-03-04T22:10:14.900Z,0.70
2019-03-04T22:12:46.175Z,0.87
2019-03-04T22:15:16.839Z,1.30
2019-03-04T22:17:48.064Z,1.87
2019-03-04T22:20:20.275Z,1.00
2019-03-04T22:22:57.570Z,1.00
2019-03-04T22:25:29.072Z,1.73
2019-03-04T22:27:59.329Z,1.87
2019-03-04T22:30:30.188Z,1.50
2019-03-04T22:32:59.661Z,1.30
2019-03-04T22:35:30.649Z,0.70
2019-03-04T22:38:00.720Z,0.80
2019-03-04T22:40:30.239Z,1.03
2019-03-04T22:42:59.895Z,1.20
2019-03-04T22:45:32.262Z,0.83
2019-03-04T22:48:02.252Z,1.70
2019-03-04T22:50:32.630Z,4.50
2019-03-04T22:53:06.458Z,1.57
2019-03-04T22:55:37.331Z,3.47
2019-03-04T22:58:07.817Z,0.60
2019-03-04T23:00:55.261Z,0.83
2019-03-04T23:03:26.723Z,0.97
2019-03-04T23:06:00.092Z,0.83
2019-03-04T23:08:30.858Z,0.70
2019-03-04T23:11:00.020Z,0.90
2019-03-04T23:13:30.966Z,1.17
2019-03-04T23:16:01.994Z,0.70
2019-03-04T23:18:33.845Z,0.70
2019-03-04T23:21:06.521Z,0.83
2019-03-04T23:23:36.962Z,0.90
2019-03-04T23:26:07.699Z,0.70
2019-03-04T23:28:37.207Z,0.67
2019-03-04T23:31:08.096Z,1.83
2019-03-04T23:33:37.577Z,2.70
2019-03-04T23:36:08.005Z,0.63
2019-03-04T23:38:38.775Z,1.03
2019-03-04T23:41:09.109Z,2.13
2019-03-04T23:43:40.756Z,1.23
2019-03-04T23:46:15.597Z,0.60
2019-03-04T23:48:47.602Z,0.80
2019-03-04T23:51:21.609Z,0.43
2019-03-04T23:53:52.096Z,0.50
2019-03-04T23:56:23.137Z,0.50
2019-03-04T23:58:53.014Z,2.63
